sensor_id;sensor_type;location;lat;lon;timestamp;pressure;altitude;pressure_sealevel;temperature;humidity
82148;BME280;71718;50.480;12.110;2024-02-26T00:01:46;96289.00;;;-0.27;72.72
82148;BME280;71718;50.480;12.110;2024-02-26T00:04:12;96288.22;;;-0.27;72.56
82148;BME280;71718;50.480;12.110;2024-02-26T00:06:39;96289.81;;;-0.26;72.59
82148;BME280;71718;50.480;12.110;2024-02-26T00:09:05;96289.81;;;-0.26;72.27
82148;BME280;71718;50.480;12.110;2024-02-26T00:11:32;96280.13;;;-0.31;72.05
82148;BME280;71718;50.480;12.110;2024-02-26T00:13:58;96280.47;;;-0.34;72.28
82148;BME280;71718;50.480;12.110;2024-02-26T00:16:25;96280.78;;;-0.37;72.48
82148;BME280;71718;50.480;12.110;2024-02-26T00:18:51;96280.19;;;-0.39;72.47
82148;BME280;71718;50.480;12.110;2024-02-26T00:21:17;96276.03;;;-0.40;72.74
82148;BME280;71718;50.480;12.110;2024-02-26T00:23:44;96270.47;;;-0.43;72.37
82148;BME280;71718;50.480;12.110;2024-02-26T00:26:10;96269.59;;;-0.51;72.51
82148;BME280;71718;50.480;12.110;2024-02-26T00:28:37;96265.00;;;-0.55;72.61
82148;BME280;71718;50.480;12.110;2024-02-26T00:31:04;96266.28;;;-0.59;72.92
82148;BME280;71718;50.480;12.110;2024-02-26T00:33:30;96258.97;;;-0.62;73.08
82148;BME280;71718;50.480;12.110;2024-02-26T00:35:56;96250.53;;;-0.63;73.02
82148;BME280;71718;50.480;12.110;2024-02-26T00:38:23;96247.81;;;-0.61;72.62
82148;BME280;71718;50.480;12.110;2024-02-26T00:40:49;96244.63;;;-0.63;72.77
82148;BME280;71718;50.480;12.110;2024-02-26T00:43:16;96238.94;;;-0.65;72.55
82148;BME280;71718;50.480;12.110;2024-02-26T00:45:42;96244.19;;;-0.67;72.41
82148;BME280;71718;50.480;12.110;2024-02-26T00:48:08;96236.09;;;-0.70;72.47
82148;BME280;71718;50.480;12.110;2024-02-26T00:50:35;96229.56;;;-0.73;72.78
82148;BME280;71718;50.480;12.110;2024-02-26T00:53:01;96227.19;;;-0.74;72.61
82148;BME280;71718;50.480;12.110;2024-02-26T00:55:28;96233.09;;;-0.74;72.38
82148;BME280;71718;50.480;12.110;2024-02-26T00:57:54;96224.81;;;-0.76;72.73
82148;BME280;71718;50.480;12.110;2024-02-26T01:00:20;96217.50;;;-0.79;72.54
82148;BME280;71718;50.480;12.110;2024-02-26T01:02:47;96224.69;;;-0.82;72.52
82148;BME280;71718;50.480;12.110;2024-02-26T01:05:14;96226.63;;;-0.84;72.46
82148;BME280;71718;50.480;12.110;2024-02-26T01:07:40;96224.88;;;-0.84;72.80
82148;BME280;71718;50.480;12.110;2024-02-26T01:10:07;96229.34;;;-0.86;72.23
82148;BME280;71718;50.480;12.110;2024-02-26T01:12:34;96219.47;;;-0.89;72.03
82148;BME280;71718;50.480;12.110;2024-02-26T01:15:01;96215.56;;;-1.00;72.13
82148;BME280;71718;50.480;12.110;2024-02-26T01:17:28;96210.53;;;-1.08;72.80
82148;BME280;71718;50.480;12.110;2024-02-26T01:19:55;96207.34;;;-1.10;72.91
82148;BME280;71718;50.480;12.110;2024-02-26T01:22:21;96216.91;;;-1.12;73.25
82148;BME280;71718;50.480;12.110;2024-02-26T01:24:48;96206.72;;;-1.12;73.15
82148;BME280;71718;50.480;12.110;2024-02-26T01:27:14;96213.06;;;-1.08;72.94
82148;BME280;71718;50.480;12.110;2024-02-26T01:29:41;96216.13;;;-1.12;72.09
82148;BME280;71718;50.480;12.110;2024-02-26T01:32:08;96202.47;;;-1.19;72.78
82148;BME280;71718;50.480;12.110;2024-02-26T01:34:34;96208.00;;;-1.16;72.75
82148;BME280;71718;50.480;12.110;2024-02-26T01:37:01;96212.81;;;-1.21;72.91
82148;BME280;71718;50.480;12.110;2024-02-26T01:39:27;96215.53;;;-1.22;72.96
82148;BME280;71718;50.480;12.110;2024-02-26T01:41:53;96207.09;;;-1.23;72.73
82148;BME280;71718;50.480;12.110;2024-02-26T01:44:21;96204.44;;;-1.29;72.43
82148;BME280;71718;50.480;12.110;2024-02-26T01:46:47;96197.13;;;-1.32;72.90
82148;BME280;71718;50.480;12.110;2024-02-26T01:49:14;96198.69;;;-1.31;72.81
82148;BME280;71718;50.480;12.110;2024-02-26T01:51:42;96193.28;;;-1.28;72.86
82148;BME280;71718;50.480;12.110;2024-02-26T01:54:09;96195.31;;;-1.24;72.79
82148;BME280;71718;50.480;12.110;2024-02-26T01:56:36;96193.22;;;-1.20;72.20
82148;BME280;71718;50.480;12.110;2024-02-26T01:59:05;96196.56;;;-1.20;71.94
82148;BME280;71718;50.480;12.110;2024-02-26T02:01:33;96197.03;;;-1.16;71.93
82148;BME280;71718;50.480;12.110;2024-02-26T02:04:00;96191.78;;;-1.15;71.98
82148;BME280;71718;50.480;12.110;2024-02-26T02:06:27;96189.38;;;-1.16;72.09
82148;BME280;71718;50.480;12.110;2024-02-26T02:08:54;96192.72;;;-1.16;71.57
82148;BME280;71718;50.480;12.110;2024-02-26T02:11:21;96189.72;;;-1.19;71.53
82148;BME280;71718;50.480;12.110;2024-02-26T02:13:47;96191.16;;;-1.17;71.42
82148;BME280;71718;50.480;12.110;2024-02-26T02:16:14;96201.38;;;-1.25;71.78
82148;BME280;71718;50.480;12.110;2024-02-26T02:18:40;96191.56;;;-1.36;71.85
82148;BME280;71718;50.480;12.110;2024-02-26T02:21:06;96189.00;;;-1.36;71.96
82148;BME280;71718;50.480;12.110;2024-02-26T02:23:33;96187.25;;;-1.36;71.50
82148;BME280;71718;50.480;12.110;2024-02-26T02:25:59;96198.09;;;-1.33;71.74
82148;BME280;71718;50.480;12.110;2024-02-26T02:28:27;96195.53;;;-1.33;71.81
82148;BME280;71718;50.480;12.110;2024-02-26T02:30:53;96198.59;;;-1.38;71.59
82148;BME280;71718;50.480;12.110;2024-02-26T02:33:21;96198.75;;;-1.40;71.47
82148;BME280;71718;50.480;12.110;2024-02-26T02:35:48;96204.50;;;-1.46;71.45
82148;BME280;71718;50.480;12.110;2024-02-26T02:38:18;96205.16;;;-1.52;71.84
82148;BME280;71718;50.480;12.110;2024-02-26T02:40:44;96204.19;;;-1.51;71.83
82148;BME280;71718;50.480;12.110;2024-02-26T02:43:11;96200.06;;;-1.52;71.69
82148;BME280;71718;50.480;12.110;2024-02-26T02:45:37;96196.56;;;-1.51;71.54
82148;BME280;71718;50.480;12.110;2024-02-26T02:48:04;96197.22;;;-1.57;71.75
82148;BME280;71718;50.480;12.110;2024-02-26T02:50:30;96200.25;;;-1.61;71.73
82148;BME280;71718;50.480;12.110;2024-02-26T02:52:57;96194.06;;;-1.67;71.68
82148;BME280;71718;50.480;12.110;2024-02-26T02:55:23;96199.06;;;-1.73;72.12
82148;BME280;71718;50.480;12.110;2024-02-26T02:57:49;96197.28;;;-1.73;72.33
82148;BME280;71718;50.480;12.110;2024-02-26T03:00:16;96202.22;;;-1.71;71.94
82148;BME280;71718;50.480;12.110;2024-02-26T03:02:42;96209.69;;;-1.78;72.15
82148;BME280;71718;50.480;12.110;2024-02-26T03:05:09;96193.97;;;-1.82;72.19
82148;BME280;71718;50.480;12.110;2024-02-26T03:07:36;96201.59;;;-1.82;72.03
82148;BME280;71718;50.480;12.110;2024-02-26T03:10:02;96195.72;;;-1.82;71.68
82148;BME280;71718;50.480;12.110;2024-02-26T03:12:30;96197.47;;;-1.83;71.90
82148;BME280;71718;50.480;12.110;2024-02-26T03:14:56;96202.56;;;-1.83;71.93
82148;BME280;71718;50.480;12.110;2024-02-26T03:17:22;96198.41;;;-1.84;71.84
82148;BME280;71718;50.480;12.110;2024-02-26T03:19:49;96193.34;;;-1.84;71.62
82148;BME280;71718;50.480;12.110;2024-02-26T03:22:16;96192.38;;;-1.83;71.75
82148;BME280;71718;50.480;12.110;2024-02-26T03:24:42;96196.53;;;-1.82;71.63
82148;BME280;71718;50.480;12.110;2024-02-26T03:27:08;96204.16;;;-1.82;71.43
82148;BME280;71718;50.480;12.110;2024-02-26T03:29:35;96208.44;;;-1.82;71.12
82148;BME280;71718;50.480;12.110;2024-02-26T03:32:02;96209.72;;;-1.86;71.21
82148;BME280;71718;50.480;12.110;2024-02-26T03:34:28;96206.38;;;-1.87;71.33
82148;BME280;71718;50.480;12.110;2024-02-26T03:36:55;96202.59;;;-1.91;71.31
82148;BME280;71718;50.480;12.110;2024-02-26T03:39:21;96206.09;;;-1.92;71.39
82148;BME280;71718;50.480;12.110;2024-02-26T03:41:48;96202.59;;;-1.99;71.43
82148;BME280;71718;50.480;12.110;2024-02-26T03:44:15;96207.38;;;-2.04;71.83
82148;BME280;71718;50.480;12.110;2024-02-26T03:46:41;96215.81;;;-2.03;71.55
82148;BME280;71718;50.480;12.110;2024-02-26T03:49:07;96213.44;;;-2.05;71.67
82148;BME280;71718;50.480;12.110;2024-02-26T03:51:34;96220.28;;;-2.05;71.66
82148;BME280;71718;50.480;12.110;2024-02-26T03:54:01;96223.78;;;-2.06;71.79
82148;BME280;71718;50.480;12.110;2024-02-26T03:56:27;96217.88;;;-2.07;71.35
82148;BME280;71718;50.480;12.110;2024-02-26T03:58:54;96213.59;;;-2.06;71.62
82148;BME280;71718;50.480;12.110;2024-02-26T04:01:20;96222.50;;;-2.02;71.10
82148;BME280;71718;50.480;12.110;2024-02-26T04:03:46;96220.59;;;-2.00;71.10
82148;BME280;71718;50.480;12.110;2024-02-26T04:06:13;96224.56;;;-2.06;71.14
82148;BME280;71718;50.480;12.110;2024-02-26T04:08:40;96222.66;;;-2.12;71.37
82148;BME280;71718;50.480;12.110;2024-02-26T04:11:07;96222.66;;;-2.12;71.36
82148;BME280;71718;50.480;12.110;2024-02-26T04:13:34;96223.94;;;-2.08;71.32
82148;BME280;71718;50.480;12.110;2024-02-26T04:16:00;96234.09;;;-2.08;70.90
82148;BME280;71718;50.480;12.110;2024-02-26T04:18:27;96228.84;;;-2.06;70.72
82148;BME280;71718;50.480;12.110;2024-02-26T04:20:54;96228.56;;;-2.11;70.86
82148;BME280;71718;50.480;12.110;2024-02-26T04:23:20;96232.53;;;-2.17;70.94
82148;BME280;71718;50.480;12.110;2024-02-26T04:25:46;96229.03;;;-2.16;71.11
82148;BME280;71718;50.480;12.110;2024-02-26T04:28:13;96231.56;;;-2.16;71.26
82148;BME280;71718;50.480;12.110;2024-02-26T04:30:40;96230.44;;;-2.13;70.93
82148;BME280;71718;50.480;12.110;2024-02-26T04:33:06;96230.63;;;-2.15;70.62
82148;BME280;71718;50.480;12.110;2024-02-26T04:35:33;96229.66;;;-2.14;71.02
82148;BME280;71718;50.480;12.110;2024-02-26T04:37:59;96232.84;;;-2.12;70.69
82148;BME280;71718;50.480;12.110;2024-02-26T04:40:25;96230.16;;;-2.10;70.70
82148;BME280;71718;50.480;12.110;2024-02-26T04:42:52;96228.56;;;-2.11;70.47
82148;BME280;71718;50.480;12.110;2024-02-26T04:45:18;96231.88;;;-2.11;70.66
82148;BME280;71718;50.480;12.110;2024-02-26T04:47:46;96232.84;;;-2.12;70.41
82148;BME280;71718;50.480;12.110;2024-02-26T04:50:12;96228.69;;;-2.13;70.54
82148;BME280;71718;50.480;12.110;2024-02-26T04:52:38;96227.59;;;-2.10;70.75
82148;BME280;71718;50.480;12.110;2024-02-26T04:55:05;96229.34;;;-2.11;70.36
82148;BME280;71718;50.480;12.110;2024-02-26T04:57:31;96229.16;;;-2.09;70.20
82148;BME280;71718;50.480;12.110;2024-02-26T04:59:58;96229.81;;;-2.07;70.41
82148;BME280;71718;50.480;12.110;2024-02-26T05:02:24;96222.50;;;-2.10;69.92
82148;BME280;71718;50.480;12.110;2024-02-26T05:04:51;96221.38;;;-2.08;70.10
82148;BME280;71718;50.480;12.110;2024-02-26T05:07:17;96212.00;;;-2.07;70.07
82148;BME280;71718;50.480;12.110;2024-02-26T05:09:44;96215.34;;;-2.07;70.13
82148;BME280;71718;50.480;12.110;2024-02-26T05:12:11;96210.25;;;-2.07;69.83
82148;BME280;71718;50.480;12.110;2024-02-26T05:14:37;96211.66;;;-2.04;69.90
82148;BME280;71718;50.480;12.110;2024-02-26T05:17:03;96223.44;;;-2.03;69.55
82148;BME280;71718;50.480;12.110;2024-02-26T05:19:30;96220.91;;;-2.03;69.55
82148;BME280;71718;50.480;12.110;2024-02-26T05:21:56;96224.72;;;-2.07;69.60
82148;BME280;71718;50.480;12.110;2024-02-26T05:24:23;96222.66;;;-2.12;69.63
82148;BME280;71718;50.480;12.110;2024-02-26T05:26:49;96218.69;;;-2.14;69.91
82148;BME280;71718;50.480;12.110;2024-02-26T05:29:16;96222.81;;;-2.13;69.92
82148;BME280;71718;50.480;12.110;2024-02-26T05:31:43;96226.94;;;-2.12;69.88
82148;BME280;71718;50.480;12.110;2024-02-26T05:34:09;96222.50;;;-2.10;69.61
82148;BME280;71718;50.480;12.110;2024-02-26T05:36:36;96230.16;;;-2.10;69.65
82148;BME280;71718;50.480;12.110;2024-02-26T05:39:02;96230.28;;;-2.12;69.53
82148;BME280;71718;50.480;12.110;2024-02-26T05:41:29;96219.47;;;-2.14;69.93
82148;BME280;71718;50.480;12.110;2024-02-26T05:43:55;96227.59;;;-2.10;69.74
82148;BME280;71718;50.480;12.110;2024-02-26T05:46:22;96232.34;;;-2.07;69.46
82148;BME280;71718;50.480;12.110;2024-02-26T05:48:52;96238.09;;;-2.05;69.35
82148;BME280;71718;50.480;12.110;2024-02-26T05:51:19;96241.41;;;-2.13;69.54
82148;BME280;71718;50.480;12.110;2024-02-26T05:53:45;96244.91;;;-2.14;69.57
82148;BME280;71718;50.480;12.110;2024-02-26T05:56:12;96251.91;;;-2.16;69.31
82148;BME280;71718;50.480;12.110;2024-02-26T05:58:38;96242.84;;;-2.18;69.46
82148;BME280;71718;50.480;12.110;2024-02-26T06:01:04;96240.16;;;-2.25;69.55
82148;BME280;71718;50.480;12.110;2024-02-26T06:03:31;96243.03;;;-2.20;69.84
82148;BME280;71718;50.480;12.110;2024-02-26T06:05:57;96245.25;;;-2.17;69.81
82148;BME280;71718;50.480;12.110;2024-02-26T06:08:24;96246.19;;;-2.10;69.46
82148;BME280;71718;50.480;12.110;2024-02-26T06:10:50;96244.72;;;-2.04;69.33
82148;BME280;71718;50.480;12.110;2024-02-26T06:13:17;96243.47;;;-2.00;69.04
82148;BME280;71718;50.480;12.110;2024-02-26T06:15:43;96246.63;;;-1.98;68.85
82148;BME280;71718;50.480;12.110;2024-02-26T06:18:09;96249.69;;;-1.95;68.64
82148;BME280;71718;50.480;12.110;2024-02-26T06:20:36;96245.84;;;-1.91;68.54
82148;BME280;71718;50.480;12.110;2024-02-26T06:23:02;96249.50;;;-1.85;68.35
82148;BME280;71718;50.480;12.110;2024-02-26T06:25:29;96257.91;;;-1.77;68.08
82148;BME280;71718;50.480;12.110;2024-02-26T06:27:55;96260.59;;;-1.70;67.93
82148;BME280;71718;50.480;12.110;2024-02-26T06:30:21;96257.56;;;-1.65;67.57
82148;BME280;71718;50.480;12.110;2024-02-26T06:32:48;96265.94;;;-1.57;67.35
82148;BME280;71718;50.480;12.110;2024-02-26T06:35:14;96254.97;;;-1.49;67.03
82148;BME280;71718;50.480;12.110;2024-02-26T06:37:41;96262.25;;;-1.38;66.63
82148;BME280;71718;50.480;12.110;2024-02-26T06:40:07;96267.13;;;-1.28;66.28
82148;BME280;71718;50.480;12.110;2024-02-26T06:42:34;96270.28;;;-1.18;65.88
82148;BME280;71718;50.480;12.110;2024-02-26T06:45:01;96261.97;;;-1.12;65.83
82148;BME280;71718;50.480;12.110;2024-02-26T06:47:27;96265.28;;;-1.04;65.44
82148;BME280;71718;50.480;12.110;2024-02-26T06:49:53;96260.91;;;-0.95;65.19
82148;BME280;71718;50.480;12.110;2024-02-26T06:52:20;96266.00;;;-0.87;64.62
82148;BME280;71718;50.480;12.110;2024-02-26T06:54:46;96261.34;;;-0.83;64.62
82148;BME280;71718;50.480;12.110;2024-02-26T06:57:13;96267.53;;;-0.78;64.82
82148;BME280;71718;50.480;12.110;2024-02-26T06:59:40;96256.97;;;-0.75;64.76
82148;BME280;71718;50.480;12.110;2024-02-26T07:02:06;96267.81;;;-0.73;64.57
82148;BME280;71718;50.480;12.110;2024-02-26T07:04:33;96274.16;;;-0.69;64.35
82148;BME280;71718;50.480;12.110;2024-02-26T07:06:59;96260.59;;;-0.69;64.38
82148;BME280;71718;50.480;12.110;2024-02-26T07:09:26;96265.72;;;-0.69;64.61
82148;BME280;71718;50.480;12.110;2024-02-26T07:11:52;96261.25;;;-0.67;64.21
82148;BME280;71718;50.480;12.110;2024-02-26T07:14:19;96263.00;;;-0.68;64.36
82148;BME280;71718;50.480;12.110;2024-02-26T07:16:45;96262.50;;;-0.63;64.20
82148;BME280;71718;50.480;12.110;2024-02-26T07:19:11;96262.59;;;-0.57;64.08
82148;BME280;71718;50.480;12.110;2024-02-26T07:21:38;96266.84;;;-0.49;63.99
82148;BME280;71718;50.480;12.110;2024-02-26T07:24:04;96271.47;;;-0.44;63.89
82148;BME280;71718;50.480;12.110;2024-02-26T07:26:31;96267.44;;;-0.39;63.92
82148;BME280;71718;50.480;12.110;2024-02-26T07:28:57;96272.03;;;-0.34;63.35
82148;BME280;71718;50.480;12.110;2024-02-26T07:31:24;96273.69;;;-0.27;63.38
82148;BME280;71718;50.480;12.110;2024-02-26T07:33:50;96273.03;;;-0.21;63.08
82148;BME280;71718;50.480;12.110;2024-02-26T07:36:17;96270.13;;;-0.18;63.06
82148;BME280;71718;50.480;12.110;2024-02-26T07:38:43;96268.63;;;-0.12;62.89
82148;BME280;71718;50.480;12.110;2024-02-26T07:41:11;96272.25;;;-0.07;62.73
82148;BME280;71718;50.480;12.110;2024-02-26T07:43:38;96281.09;;;0.06;62.37
82148;BME280;71718;50.480;12.110;2024-02-26T07:46:04;96273.63;;;0.19;62.25
82148;BME280;71718;50.480;12.110;2024-02-26T07:48:30;96270.91;;;0.35;61.43
82148;BME280;71718;50.480;12.110;2024-02-26T07:50:57;96271.72;;;0.50;60.64
82148;BME280;71718;50.480;12.110;2024-02-26T07:53:23;96282.28;;;0.62;60.94
82148;BME280;71718;50.480;12.110;2024-02-26T07:55:50;96278.34;;;0.74;60.42
82148;BME280;71718;50.480;12.110;2024-02-26T07:58:16;96282.38;;;0.83;60.26
82148;BME280;71718;50.480;12.110;2024-02-26T08:00:42;96290.13;;;0.90;60.28
82148;BME280;71718;50.480;12.110;2024-02-26T08:03:09;96298.66;;;0.97;59.78
82148;BME280;71718;50.480;12.110;2024-02-26T08:05:35;96307.56;;;1.01;60.57
82148;BME280;71718;50.480;12.110;2024-02-26T08:08:02;96295.91;;;0.98;60.07
82148;BME280;71718;50.480;12.110;2024-02-26T08:10:28;96299.69;;;1.02;59.91
82148;BME280;71718;50.480;12.110;2024-02-26T08:12:58;96302.34;;;1.09;59.91
82148;BME280;71718;50.480;12.110;2024-02-26T08:15:25;96306.56;;;1.16;58.89
82148;BME280;71718;50.480;12.110;2024-02-26T08:17:51;96306.63;;;1.23;59.93
82148;BME280;71718;50.480;12.110;2024-02-26T08:20:18;96300.25;;;1.34;58.91
82148;BME280;71718;50.480;12.110;2024-02-26T08:22:44;96297.22;;;1.45;58.91
82148;BME280;71718;50.480;12.110;2024-02-26T08:25:10;96306.56;;;1.52;58.89
82148;BME280;71718;50.480;12.110;2024-02-26T08:27:37;96307.63;;;1.58;59.95
82148;BME280;71718;50.480;12.110;2024-02-26T08:30:04;96301.41;;;1.67;58.42
82148;BME280;71718;50.480;12.110;2024-02-26T08:32:30;96303.66;;;1.77;58.75
82148;BME280;71718;50.480;12.110;2024-02-26T08:34:57;96304.31;;;1.85;57.56
82148;BME280;71718;50.480;12.110;2024-02-26T08:37:23;96307.72;;;1.92;57.18
82148;BME280;71718;50.480;12.110;2024-02-26T08:39:50;96309.97;;;2.02;57.37
82148;BME280;71718;50.480;12.110;2024-02-26T08:42:16;96312.66;;;2.15;58.84
82148;BME280;71718;50.480;12.110;2024-02-26T08:44:42;96322.56;;;2.25;60.78
82148;BME280;71718;50.480;12.110;2024-02-26T08:47:09;96318.72;;;2.35;61.73
82148;BME280;71718;50.480;12.110;2024-02-26T08:49:35;96319.34;;;2.44;59.71
82148;BME280;71718;50.480;12.110;2024-02-26T08:52:04;96316.63;;;2.52;60.45
82148;BME280;71718;50.480;12.110;2024-02-26T08:54:30;96318.66;;;2.57;58.05
82148;BME280;71718;50.480;12.110;2024-02-26T08:56:57;96321.25;;;2.63;58.28
82148;BME280;71718;50.480;12.110;2024-02-26T08:59:23;96312.81;;;2.69;59.27
82148;BME280;71718;50.480;12.110;2024-02-26T09:01:49;96315.25;;;2.77;57.51
82148;BME280;71718;50.480;12.110;2024-02-26T09:04:16;96308.75;;;2.88;59.04
82148;BME280;71718;50.480;12.110;2024-02-26T09:06:42;96308.63;;;2.96;58.49
82148;BME280;71718;50.480;12.110;2024-02-26T09:09:09;96316.19;;;3.11;61.05
82148;BME280;71718;50.480;12.110;2024-02-26T09:11:35;96308.34;;;3.25;63.35
82148;BME280;71718;50.480;12.110;2024-02-26T09:14:02;96311.34;;;3.42;62.41
82148;BME280;71718;50.480;12.110;2024-02-26T09:16:30;96300.53;;;3.53;61.62
82148;BME280;71718;50.480;12.110;2024-02-26T09:18:57;96313.22;;;3.68;64.90
82148;BME280;71718;50.480;12.110;2024-02-26T09:21:27;96308.09;;;3.68;65.31
82148;BME280;71718;50.480;12.110;2024-02-26T09:23:53;96316.63;;;3.88;66.02
82148;BME280;71718;50.480;12.110;2024-02-26T09:26:20;96314.66;;;4.03;65.00
82148;BME280;71718;50.480;12.110;2024-02-26T09:28:46;96307.16;;;4.22;64.72
82148;BME280;71718;50.480;12.110;2024-02-26T09:31:12;96309.94;;;4.20;64.19
82148;BME280;71718;50.480;12.110;2024-02-26T09:33:39;96305.78;;;4.32;63.98
82148;BME280;71718;50.480;12.110;2024-02-26T09:36:06;96304.75;;;4.59;64.16
82148;BME280;71718;50.480;12.110;2024-02-26T09:38:32;96310.63;;;4.86;63.81
82148;BME280;71718;50.480;12.110;2024-02-26T09:41:15;96313.56;;;4.90;62.20
82148;BME280;71718;50.480;12.110;2024-02-26T09:43:43;96313.13;;;5.06;61.81
82148;BME280;71718;50.480;12.110;2024-02-26T09:46:10;96320.81;;;5.19;62.13
82148;BME280;71718;50.480;12.110;2024-02-26T09:48:37;96313.81;;;5.33;62.75
82148;BME280;71718;50.480;12.110;2024-02-26T09:51:04;96322.31;;;5.46;61.84
82148;BME280;71718;50.480;12.110;2024-02-26T09:53:31;96310.28;;;5.72;61.70
82148;BME280;71718;50.480;12.110;2024-02-26T09:55:58;96316.63;;;6.01;61.46
82148;BME280;71718;50.480;12.110;2024-02-26T09:58:28;96321.13;;;6.37;61.11
82148;BME280;71718;50.480;12.110;2024-02-26T10:00:56;96333.16;;;6.67;60.63
82148;BME280;71718;50.480;12.110;2024-02-26T10:03:31;96332.91;;;6.94;58.80
82148;BME280;71718;50.480;12.110;2024-02-26T10:06:00;96320.56;;;7.14;59.23
82148;BME280;71718;50.480;12.110;2024-02-26T10:08:28;96316.41;;;7.13;57.91
82148;BME280;71718;50.480;12.110;2024-02-26T10:10:54;96323.22;;;7.07;57.05
82148;BME280;71718;50.480;12.110;2024-02-26T10:13:21;96319.59;;;6.97;52.84
82148;BME280;71718;50.480;12.110;2024-02-26T10:15:47;96324.16;;;6.95;58.32
82148;BME280;71718;50.480;12.110;2024-02-26T10:18:14;96321.38;;;6.96;58.14
82148;BME280;71718;50.480;12.110;2024-02-26T10:20:40;96320.72;;;7.01;58.37
82148;BME280;71718;50.480;12.110;2024-02-26T10:23:17;96318.06;;;7.07;58.58
82148;BME280;71718;50.480;12.110;2024-02-26T10:25:53;96315.56;;;7.01;58.06
82148;BME280;71718;50.480;12.110;2024-02-26T10:28:20;96307.69;;;6.96;56.07
82148;BME280;71718;50.480;12.110;2024-02-26T10:30:48;96305.88;;;7.14;59.24
82148;BME280;71718;50.480;12.110;2024-02-26T10:33:15;96300.19;;;7.24;59.16
82148;BME280;71718;50.480;12.110;2024-02-26T10:35:46;96298.53;;;7.30;58.67
82148;BME280;71718;50.480;12.110;2024-02-26T10:38:12;96286.34;;;7.37;59.50
82148;BME280;71718;50.480;12.110;2024-02-26T10:40:39;96290.53;;;7.49;59.85
82148;BME280;71718;50.480;12.110;2024-02-26T10:43:05;96288.31;;;7.53;57.88
82148;BME280;71718;50.480;12.110;2024-02-26T10:45:32;96283.03;;;7.48;58.91
82148;BME280;71718;50.480;12.110;2024-02-26T10:48:03;96287.94;;;7.68;58.64
82148;BME280;71718;50.480;12.110;2024-02-26T10:50:29;96287.88;;;7.56;58.36
82148;BME280;71718;50.480;12.110;2024-02-26T10:52:56;96287.47;;;7.71;57.82
82148;BME280;71718;50.480;12.110;2024-02-26T10:55:23;96283.69;;;7.73;57.90
82148;BME280;71718;50.480;12.110;2024-02-26T10:57:52;96298.75;;;7.46;57.61
82148;BME280;71718;50.480;12.110;2024-02-26T11:00:18;96293.25;;;7.54;56.60
82148;BME280;71718;50.480;12.110;2024-02-26T11:02:45;96302.13;;;7.47;55.52
82148;BME280;71718;50.480;12.110;2024-02-26T11:05:12;96297.66;;;7.54;56.24
82148;BME280;71718;50.480;12.110;2024-02-26T11:07:41;96297.59;;;7.72;56.15
82148;BME280;71718;50.480;12.110;2024-02-26T11:10:09;96309.97;;;7.82;55.54
82148;BME280;71718;50.480;12.110;2024-02-26T11:12:35;96300.63;;;7.99;55.69
82148;BME280;71718;50.480;12.110;2024-02-26T11:15:03;96306.72;;;8.05;54.62
82148;BME280;71718;50.480;12.110;2024-02-26T11:17:29;96307.16;;;8.13;55.23
82148;BME280;71718;50.480;12.110;2024-02-26T11:19:56;96314.94;;;8.25;56.16
82148;BME280;71718;50.480;12.110;2024-02-26T11:22:26;96309.44;;;8.21;55.49
82148;BME280;71718;50.480;12.110;2024-02-26T11:24:53;96314.16;;;8.24;54.05
82148;BME280;71718;50.480;12.110;2024-02-26T11:27:24;96313.69;;;8.16;53.42
82148;BME280;71718;50.480;12.110;2024-02-26T11:29:54;96313.38;;;8.24;54.70
82148;BME280;71718;50.480;12.110;2024-02-26T11:32:26;96318.78;;;8.45;54.22
82148;BME280;71718;50.480;12.110;2024-02-26T11:34:53;96317.44;;;8.66;53.14
82148;BME280;71718;50.480;12.110;2024-02-26T11:37:20;96323.63;;;8.65;52.07
82148;BME280;71718;50.480;12.110;2024-02-26T11:39:47;96320.16;;;8.71;51.05
82148;BME280;71718;50.480;12.110;2024-02-26T11:42:15;96321.81;;;8.89;51.15
82148;BME280;71718;50.480;12.110;2024-02-26T11:44:41;96316.50;;;9.07;51.85
82148;BME280;71718;50.480;12.110;2024-02-26T11:47:21;96318.00;;;9.31;51.29
82148;BME280;71718;50.480;12.110;2024-02-26T11:49:48;96324.19;;;9.42;51.47
82148;BME280;71718;50.480;12.110;2024-02-26T11:52:15;96326.00;;;9.42;50.49
82148;BME280;71718;50.480;12.110;2024-02-26T11:54:52;96317.78;;;9.45;49.90
82148;BME280;71718;50.480;12.110;2024-02-26T11:57:29;96319.34;;;9.46;50.58
82148;BME280;71718;50.480;12.110;2024-02-26T12:02:39;96314.72;;;9.48;50.24
82148;BME280;71718;50.480;12.110;2024-02-26T12:05:14;96314.38;;;9.44;50.01
82148;BME280;71718;50.480;12.110;2024-02-26T12:07:47;96320.22;;;9.51;50.97
82148;BME280;71718;50.480;12.110;2024-02-26T12:10:32;96320.69;;;9.48;50.75
82148;BME280;71718;50.480;12.110;2024-02-26T12:13:03;96314.16;;;9.46;49.97
82148;BME280;71718;50.480;12.110;2024-02-26T12:15:37;96306.94;;;9.48;50.12
82148;BME280;71718;50.480;12.110;2024-02-26T12:18:07;96307.34;;;9.68;51.46
82148;BME280;71718;50.480;12.110;2024-02-26T12:20:34;96312.84;;;9.71;49.89
82148;BME280;71718;50.480;12.110;2024-02-26T12:23:02;96307.19;;;9.75;49.88
82148;BME280;71718;50.480;12.110;2024-02-26T12:25:30;96312.56;;;9.85;50.55
82148;BME280;71718;50.480;12.110;2024-02-26T12:27:57;96317.19;;;9.83;48.78
82148;BME280;71718;50.480;12.110;2024-02-26T12:30:23;96309.81;;;9.91;49.29
82148;BME280;71718;50.480;12.110;2024-02-26T12:32:51;96324.47;;;9.97;50.07
82148;BME280;71718;50.480;12.110;2024-02-26T12:35:20;96320.38;;;10.01;49.37
82148;BME280;71718;50.480;12.110;2024-02-26T12:37:47;96325.72;;;10.11;47.96
82148;BME280;71718;50.480;12.110;2024-02-26T12:40:13;96319.81;;;9.99;48.14
82148;BME280;71718;50.480;12.110;2024-02-26T12:42:40;96323.97;;;10.00;50.08
82148;BME280;71718;50.480;12.110;2024-02-26T12:45:09;96327.38;;;10.01;49.49
82148;BME280;71718;50.480;12.110;2024-02-26T12:50:03;96327.50;;;9.94;49.92
82148;BME280;71718;50.480;12.110;2024-02-26T12:52:37;96337.66;;;9.96;50.31
82148;BME280;71718;50.480;12.110;2024-02-26T12:55:05;96341.97;;;9.90;49.83
82148;BME280;71718;50.480;12.110;2024-02-26T12:57:33;96342.19;;;9.89;49.40
82148;BME280;71718;50.480;12.110;2024-02-26T13:00:00;96349.97;;;9.89;48.94